createdAt,value
2019-05-12T00:00:18.387Z,6.41
2019-05-12T00:01:18.752Z,6.31
2019-05-12T00:02:17.869Z,6.34
2019-05-12T00:03:18.889Z,6.34
2019-05-12T00:04:18.952Z,6.33
2019-05-12T00:05:18.537Z,6.25
2019-05-12T00:06:17.758Z,6.28
2019-05-12T00:07:18.058Z,6.31
2019-05-12T00:08:18.900Z,6.28
2019-05-12T00:09:18.792Z,6.17
2019-05-12T00:10:17.833Z,6.12
2019-05-12T00:11:17.937Z,6.12
2019-05-12T00:12:18.420Z,6.14
2019-05-12T00:13:18.998Z,6.18
2019-05-12T00:14:17.795Z,6.14
2019-05-12T00:15:19.159Z,6.22
2019-05-12T00:16:17.735Z,6.12
2019-05-12T00:17:18.787Z,6.18
2019-05-12T00:18:18.057Z,6.09
2019-05-12T00:19:17.925Z,6.15
2019-05-12T00:20:18.146Z,6.12
2019-05-12T00:21:17.725Z,6.15
2019-05-12T00:22:18.119Z,6.12
2019-05-12T00:23:26.751Z,6.04
2019-05-12T00:24:18.635Z,6.12
2019-05-12T00:25:18.121Z,6.11
2019-05-12T00:26:18.614Z,6.18
2019-05-12T00:27:17.858Z,6.03
2019-05-12T00:28:17.952Z,5.99
2019-05-12T00:29:18.508Z,5.99
2019-05-12T00:30:18.522Z,6.04
2019-05-12T00:31:18.845Z,6.09
2019-05-12T00:32:17.953Z,6.00
2019-05-12T00:33:17.974Z,6.03
2019-05-12T00:34:18.480Z,6.00
2019-05-12T00:35:18.245Z,5.97
2019-05-12T00:36:18.550Z,6.01
2019-05-12T00:37:18.556Z,6.01
2019-05-12T00:38:17.657Z,5.96
2019-05-12T00:39:18.892Z,6.01
2019-05-12T00:40:19.034Z,5.96
2019-05-12T00:41:18.140Z,5.97
2019-05-12T00:42:18.257Z,5.97
2019-05-12T00:43:18.745Z,6.00
2019-05-12T00:44:18.373Z,5.93
2019-05-12T00:45:18.119Z,5.94
2019-05-12T00:46:18.333Z,5.90
2019-05-12T00:47:18.794Z,6.01
2019-05-12T00:48:17.803Z,5.96
2019-05-12T00:49:18.639Z,5.89
2019-05-12T00:50:18.422Z,5.94
2019-05-12T00:51:18.104Z,5.90
2019-05-12T00:52:18.670Z,5.96
2019-05-12T00:53:18.682Z,5.86
2019-05-12T00:54:17.861Z,5.90
2019-05-12T00:55:18.455Z,5.81
2019-05-12T00:56:17.727Z,5.85
2019-05-12T00:57:18.195Z,5.83
2019-05-12T00:58:19.375Z,5.86
2019-05-12T00:59:18.835Z,5.79
2019-05-12T01:00:17.867Z,5.85
2019-05-12T01:01:18.401Z,5.86
2019-05-12T01:02:18.335Z,5.79
2019-05-12T01:03:18.839Z,5.76
2019-05-12T01:04:17.549Z,5.82
2019-05-12T01:05:17.727Z,5.65
2019-05-12T01:06:17.836Z,5.72
2019-05-12T01:07:18.332Z,5.71
2019-05-12T01:08:18.526Z,5.65
2019-05-12T01:09:17.659Z,5.65
2019-05-12T01:10:17.948Z,5.67
2019-05-12T01:11:17.808Z,5.63
2019-05-12T01:12:18.093Z,5.61
2019-05-12T01:13:18.612Z,5.56
2019-05-12T01:14:18.499Z,5.56
2019-05-12T01:15:17.815Z,5.43
2019-05-12T01:16:18.354Z,5.48
2019-05-12T01:17:17.716Z,5.46
2019-05-12T01:18:18.140Z,5.45
2019-05-12T01:19:18.521Z,5.45
2019-05-12T01:20:17.881Z,5.42
2019-05-12T01:21:18.459Z,5.45
2019-05-12T01:22:18.578Z,5.43
2019-05-12T01:23:18.679Z,5.49
2019-05-12T01:24:18.533Z,5.38
2019-05-12T01:25:17.636Z,5.38
2019-05-12T01:26:17.934Z,5.49
2019-05-12T01:27:18.108Z,5.35
2019-05-12T01:28:18.259Z,5.45
2019-05-12T01:29:17.686Z,5.45
2019-05-12T01:30:18.046Z,5.48
2019-05-12T01:31:18.046Z,5.45
2019-05-12T01:32:18.244Z,5.46
2019-05-12T01:33:18.146Z,5.46
2019-05-12T01:34:18.152Z,5.42
2019-05-12T01:35:18.397Z,5.35
2019-05-12T01:36:18.112Z,5.39
2019-05-12T01:37:17.955Z,5.31
2019-05-12T01:38:18.218Z,5.42
2019-05-12T01:39:18.615Z,5.38
2019-05-12T01:40:18.870Z,5.39
2019-05-12T01:41:18.005Z,5.36
2019-05-12T01:42:18.100Z,5.33
2019-05-12T01:43:18.596Z,5.33
2019-05-12T01:44:18.231Z,5.35
2019-05-12T01:45:18.059Z,5.27
2019-05-12T01:46:18.141Z,5.28
2019-05-12T01:47:18.581Z,5.35
2019-05-12T01:48:17.981Z,5.33
2019-05-12T01:49:18.486Z,5.20
2019-05-12T01:50:17.794Z,5.31
2019-05-12T01:51:17.777Z,5.21
2019-05-12T01:52:17.840Z,5.13
2019-05-12T01:53:18.044Z,5.21
2019-05-12T01:54:18.705Z,5.25
2019-05-12T01:55:18.419Z,5.17
2019-05-12T01:56:18.114Z,5.31
2019-05-12T01:57:16.779Z,5.30
2019-05-12T01:58:19.056Z,5.27
2019-05-12T01:59:18.371Z,5.33
2019-05-12T02:00:18.170Z,5.31
2019-05-12T02:01:15.958Z,5.27
2019-05-12T02:02:17.857Z,5.18
2019-05-12T02:03:17.808Z,5.22
2019-05-12T02:04:17.997Z,5.21
2019-05-12T02:05:18.187Z,5.20
2019-05-12T02:06:15.900Z,5.18
2019-05-12T02:07:15.921Z,5.20
2019-05-12T02:08:15.893Z,5.15
2019-05-12T02:09:15.897Z,5.22
2019-05-12T02:10:17.911Z,5.20
2019-05-12T02:11:18.102Z,5.27
2019-05-12T02:12:18.155Z,5.31
2019-05-12T02:13:18.166Z,5.28
2019-05-12T02:14:18.128Z,5.27
2019-05-12T02:15:18.211Z,5.25
2019-05-12T02:16:15.792Z,5.30
2019-05-12T02:17:17.850Z,5.33
2019-05-12T02:18:17.725Z,5.30
2019-05-12T02:19:17.823Z,5.33
2019-05-12T02:20:17.919Z,5.30
2019-05-12T02:21:15.733Z,5.31
2019-05-12T02:22:15.743Z,5.28
2019-05-12T02:23:17.772Z,5.31
2019-05-12T02:24:24.293Z,5.33
2019-05-12T02:25:18.487Z,5.31
2019-05-12T02:26:15.677Z,5.31
2019-05-12T02:27:17.816Z,5.38
2019-05-12T02:28:17.955Z,5.38
2019-05-12T02:29:15.641Z,5.39
2019-05-12T02:30:15.657Z,5.36
2019-05-12T02:31:15.642Z,5.38
2019-05-12T02:32:15.614Z,5.42
2019-05-12T02:33:16.143Z,5.36
2019-05-12T02:34:16.035Z,5.38
2019-05-12T02:35:16.279Z,5.39
2019-05-12T02:36:15.562Z,5.38
2019-05-12T02:37:15.552Z,5.39
2019-05-12T02:38:15.539Z,5.38
2019-05-12T02:39:15.528Z,5.39
2019-05-12T02:40:15.560Z,5.38
2019-05-12T02:41:15.821Z,5.36
2019-05-12T02:42:15.784Z,5.33
2019-05-12T02:43:15.714Z,5.33
2019-05-12T02:44:15.476Z,5.31
2019-05-12T02:45:15.721Z,5.27
2019-05-12T02:46:15.891Z,5.36
2019-05-12T02:47:16.128Z,5.33
2019-05-12T02:48:15.430Z,5.31
2019-05-12T02:49:15.902Z,5.30
2019-05-12T02:50:15.429Z,5.39
2019-05-12T02:51:15.792Z,5.35
2019-05-12T02:52:15.549Z,5.31
2019-05-12T02:53:15.394Z,5.38
2019-05-12T02:54:15.362Z,5.31
2019-05-12T02:55:15.349Z,5.28
2019-05-12T02:56:15.393Z,5.38
2019-05-12T02:57:15.326Z,5.39
2019-05-12T02:58:15.507Z,5.39
2019-05-12T02:59:16.261Z,5.33
2019-05-12T03:00:16.205Z,5.43
2019-05-12T03:01:15.450Z,5.38
2019-05-12T03:02:15.269Z,5.38
2019-05-12T03:03:15.257Z,5.40
2019-05-12T03:04:15.247Z,5.36
2019-05-12T03:05:15.259Z,5.38
2019-05-12T03:06:15.329Z,5.36
2019-05-12T03:07:15.601Z,5.33
2019-05-12T03:08:15.618Z,5.35
2019-05-12T03:09:15.352Z,5.36
2019-05-12T03:10:15.187Z,5.36
2019-05-12T03:11:15.191Z,5.38
2019-05-12T03:12:15.156Z,5.38
2019-05-12T03:13:15.143Z,5.39
2019-05-12T03:14:15.899Z,5.35
2019-05-12T03:15:15.425Z,5.36
2019-05-12T03:16:15.289Z,5.31
2019-05-12T03:17:15.412Z,5.30
2019-05-12T03:18:15.092Z,5.27
2019-05-12T03:19:15.281Z,5.30
2019-05-12T03:20:15.651Z,5.22
2019-05-12T03:21:15.414Z,5.17
2019-05-12T03:22:15.043Z,5.15
2019-05-12T03:23:18.983Z,5.18
2019-05-12T03:24:17.660Z,5.09
2019-05-12T03:25:20.741Z,5.13
2019-05-12T03:26:15.997Z,5.12
2019-05-12T03:27:17.715Z,5.04
2019-05-12T03:28:16.094Z,5.07
2019-05-12T03:29:15.119Z,5.03
2019-05-12T03:30:19.472Z,4.96
2019-05-12T03:31:22.113Z,5.00
2019-05-12T03:32:17.818Z,5.03
2019-05-12T03:33:19.708Z,5.02
2019-05-12T03:34:19.357Z,5.04
2019-05-12T03:35:17.490Z,4.96
2019-05-12T03:36:17.995Z,5.09
2019-05-12T03:37:17.944Z,4.92
2019-05-12T03:38:15.167Z,5.06
2019-05-12T03:39:15.205Z,5.04
2019-05-12T03:40:14.842Z,5.02
2019-05-12T03:41:15.064Z,5.03
2019-05-12T03:42:14.821Z,5.06
2019-05-12T03:43:15.053Z,5.07
2019-05-12T03:44:15.322Z,5.10
2019-05-12T03:45:15.156Z,5.09
2019-05-12T03:46:15.402Z,5.15
2019-05-12T03:47:14.761Z,5.12
2019-05-12T03:48:15.222Z,5.20
2019-05-12T03:49:15.525Z,5.18
2019-05-12T03:50:15.062Z,5.20
2019-05-12T03:51:15.630Z,5.20
2019-05-12T03:52:15.384Z,5.28
2019-05-12T03:53:15.575Z,5.24
2019-05-12T03:54:15.399Z,5.25
2019-05-12T03:55:30.300Z,5.27
2019-05-12T03:56:15.658Z,5.36
2019-05-12T03:57:15.202Z,5.24
2019-05-12T03:58:15.461Z,5.31
2019-05-12T03:59:15.308Z,5.33
2019-05-12T04:00:15.947Z,5.27
2019-05-12T04:01:15.248Z,5.27
2019-05-12T04:02:15.206Z,5.33
2019-05-12T04:03:15.490Z,5.28
2019-05-12T04:04:15.298Z,5.28
2019-05-12T04:05:15.783Z,5.30
2019-05-12T04:06:15.357Z,5.24
2019-05-12T04:07:15.416Z,5.24
2019-05-12T04:08:15.784Z,5.30
2019-05-12T04:09:15.431Z,5.40
2019-05-12T04:10:15.537Z,5.38
2019-05-12T04:11:14.813Z,5.27
2019-05-12T04:12:15.016Z,5.33
2019-05-12T04:13:15.279Z,5.38
2019-05-12T04:14:15.012Z,5.49
2019-05-12T04:15:15.419Z,5.43
2019-05-12T04:16:16.473Z,5.39
2019-05-12T04:17:15.059Z,5.45
2019-05-12T04:18:15.848Z,5.45
2019-05-12T04:19:14.927Z,5.51
2019-05-12T04:20:15.446Z,5.56
2019-05-12T04:21:15.529Z,5.51
2019-05-12T04:22:15.421Z,5.49
2019-05-12T04:23:15.424Z,5.56
2019-05-12T04:24:14.556Z,5.54
2019-05-12T04:25:14.869Z,5.65
2019-05-12T04:26:17.036Z,5.68
2019-05-12T04:27:15.236Z,5.60
2019-05-12T04:28:15.179Z,5.61
2019-05-12T04:29:15.412Z,5.65
2019-05-12T04:30:14.775Z,5.68
2019-05-12T04:31:15.473Z,5.75
2019-05-12T04:32:14.592Z,5.76
2019-05-12T04:33:15.427Z,5.81
2019-05-12T04:34:18.658Z,5.81
2019-05-12T04:35:15.308Z,5.90
2019-05-12T04:36:15.016Z,5.83
2019-05-12T04:37:14.948Z,5.83
2019-05-12T04:38:15.186Z,5.89
2019-05-12T04:39:14.833Z,5.89
2019-05-12T04:40:15.072Z,5.97
2019-05-12T04:41:14.710Z,5.90
2019-05-12T04:42:15.037Z,5.99
2019-05-12T04:43:14.800Z,5.90
2019-05-12T04:44:15.431Z,5.91
2019-05-12T04:45:15.573Z,5.97
2019-05-12T04:46:14.657Z,5.91
2019-05-12T04:47:14.668Z,5.91
2019-05-12T04:48:15.646Z,5.99
2019-05-12T04:49:15.837Z,5.94
2019-05-12T04:50:15.650Z,6.01
2019-05-12T04:51:15.345Z,6.03
2019-05-12T04:52:15.603Z,6.08
2019-05-12T04:53:14.614Z,6.01
2019-05-12T04:54:15.203Z,6.03
2019-05-12T04:55:15.161Z,6.04
2019-05-12T04:56:19.317Z,6.08
2019-05-12T04:57:15.163Z,6.11
2019-05-12T04:58:15.557Z,6.09
2019-05-12T04:59:15.638Z,6.18
2019-05-12T05:00:15.835Z,6.17
2019-05-12T05:01:15.621Z,6.25
2019-05-12T05:02:15.497Z,6.30
2019-05-12T05:03:14.442Z,6.38
2019-05-12T05:04:15.473Z,6.41
2019-05-12T05:05:14.590Z,6.43
2019-05-12T05:06:14.799Z,6.48
2019-05-12T05:07:15.038Z,6.38
2019-05-12T05:08:16.851Z,6.41
2019-05-12T05:09:14.864Z,6.46
2019-05-12T05:10:14.734Z,6.41
2019-05-12T05:11:14.729Z,6.44
2019-05-12T05:12:14.081Z,6.40
2019-05-12T05:13:14.978Z,6.46
2019-05-12T05:14:14.431Z,6.46
2019-05-12T05:15:14.773Z,6.44
2019-05-12T05:16:14.512Z,6.44
2019-05-12T05:17:15.040Z,6.46
2019-05-12T05:18:13.740Z,6.43
2019-05-12T05:19:13.962Z,6.49
2019-05-12T05:20:13.755Z,6.62
2019-05-12T05:21:14.051Z,6.66
2019-05-12T05:22:13.798Z,6.62
2019-05-12T05:23:14.324Z,6.76
2019-05-12T05:24:14.338Z,6.85
2019-05-12T05:25:14.406Z,6.79
2019-05-12T05:26:22.189Z,6.84
2019-05-12T05:27:14.664Z,6.91
2019-05-12T05:28:14.655Z,6.92
2019-05-12T05:29:13.754Z,6.95
2019-05-12T05:30:13.998Z,6.94
2019-05-12T05:31:14.111Z,6.95
2019-05-12T05:32:14.106Z,6.91
2019-05-12T05:33:14.463Z,6.98
2019-05-12T05:34:14.918Z,7.07
2019-05-12T05:35:13.828Z,7.07
2019-05-12T05:36:15.208Z,7.07
2019-05-12T05:37:14.694Z,7.10
2019-05-12T05:38:19.144Z,7.13
2019-05-12T05:39:14.517Z,7.25
2019-05-12T05:40:14.290Z,7.37
2019-05-12T05:41:13.598Z,7.46
2019-05-12T05:42:13.592Z,7.53
2019-05-12T05:43:18.316Z,7.58
2019-05-12T05:44:14.450Z,7.52
2019-05-12T05:45:19.638Z,7.67
2019-05-12T05:46:14.442Z,7.58
2019-05-12T05:47:13.917Z,7.75
2019-05-12T05:48:13.727Z,7.83
2019-05-12T05:49:13.463Z,7.85
2019-05-12T05:50:13.702Z,7.77
2019-05-12T05:51:13.714Z,7.74
2019-05-12T05:52:13.801Z,7.79
2019-05-12T05:53:17.550Z,7.87
2019-05-12T05:54:14.334Z,7.86
2019-05-12T05:55:18.858Z,7.89
2019-05-12T05:56:16.540Z,7.98
2019-05-12T05:57:14.337Z,7.90
2019-05-12T05:58:15.407Z,7.89
2019-05-12T05:59:15.052Z,7.87
2019-05-12T06:00:21.712Z,7.92
2019-05-12T06:01:14.256Z,7.87
2019-05-12T06:02:13.878Z,8.05
2019-05-12T06:03:22.767Z,8.16
2019-05-12T06:04:14.229Z,8.15
2019-05-12T06:05:14.420Z,8.11
2019-05-12T06:06:15.416Z,8.02
2019-05-12T06:07:14.359Z,8.04
2019-05-12T06:08:16.551Z,7.90
2019-05-12T06:09:14.253Z,7.83
2019-05-12T06:10:14.494Z,7.86
2019-05-12T06:11:14.861Z,7.87
2019-05-12T06:12:14.133Z,7.93
2019-05-12T06:13:14.370Z,7.86
2019-05-12T06:14:15.990Z,7.85
2019-05-12T06:15:13.668Z,7.79
2019-05-12T06:16:20.128Z,7.74
2019-05-12T06:17:14.684Z,7.77
2019-05-12T06:18:13.669Z,7.68
2019-05-12T06:19:14.106Z,7.55
2019-05-12T06:20:13.570Z,7.60
2019-05-12T06:21:13.770Z,7.60
2019-05-12T06:22:15.318Z,7.64
2019-05-12T06:23:14.823Z,7.67
2019-05-12T06:24:15.691Z,7.69
2019-05-12T06:25:16.239Z,7.57
2019-05-12T06:26:14.011Z,7.74
2019-05-12T06:27:16.133Z,7.80
2019-05-12T06:28:14.582Z,7.97
2019-05-12T06:29:20.116Z,7.89
2019-05-12T06:30:14.739Z,7.85
2019-05-12T06:31:13.863Z,7.87
2019-05-12T06:32:14.182Z,8.00
2019-05-12T06:33:14.400Z,8.08
2019-05-12T06:34:18.709Z,8.11
2019-05-12T06:35:15.088Z,8.02
2019-05-12T06:36:21.778Z,7.97
2019-05-12T06:37:16.942Z,7.93
2019-05-12T06:38:13.597Z,7.92
2019-05-12T06:39:16.471Z,7.98
2019-05-12T06:40:14.217Z,8.07
2019-05-12T06:41:20.476Z,8.01
2019-05-12T06:42:16.824Z,8.08
2019-05-12T06:43:13.932Z,8.07
2019-05-12T06:44:14.874Z,8.19
2019-05-12T06:45:14.254Z,8.15
2019-05-12T06:46:20.286Z,8.20
2019-05-12T06:47:14.334Z,8.22
2019-05-12T06:48:14.052Z,8.19
2019-05-12T06:49:17.354Z,8.33
2019-05-12T06:50:14.532Z,8.30
2019-05-12T06:51:16.902Z,8.37
2019-05-12T06:52:14.350Z,8.18
2019-05-12T06:53:13.919Z,8.25
2019-05-12T06:54:15.081Z,8.30
2019-05-12T06:55:14.685Z,8.45
2019-05-12T06:56:17.595Z,8.53
2019-05-12T06:57:24.195Z,8.94
2019-05-12T06:58:14.118Z,8.92
2019-05-12T06:59:14.750Z,8.99
2019-05-12T07:00:14.578Z,8.87
2019-05-12T07:01:19.088Z,8.81
2019-05-12T07:02:13.894Z,8.84
2019-05-12T07:03:14.325Z,8.84
2019-05-12T07:04:14.125Z,8.91
2019-05-12T07:05:14.614Z,9.15
2019-05-12T07:06:17.992Z,9.56
2019-05-12T07:07:14.157Z,9.53
2019-05-12T07:08:20.019Z,9.28
2019-05-12T07:09:16.431Z,9.31
2019-05-12T07:10:35.099Z,9.05
2019-05-12T07:11:14.301Z,8.92
2019-05-12T07:12:13.754Z,9.53
2019-05-12T07:13:14.768Z,9.43
2019-05-12T07:15:14.369Z,9.39
2019-05-12T07:16:16.605Z,9.40
2019-05-12T07:17:14.514Z,9.66
2019-05-12T07:18:14.062Z,9.83
2019-05-12T07:19:17.313Z,9.64
2019-05-12T07:20:14.757Z,9.64
2019-05-12T07:21:15.517Z,9.72
2019-05-12T07:22:22.037Z,9.72
2019-05-12T07:23:14.250Z,9.72
2019-05-12T07:24:14.234Z,9.76
2019-05-12T07:25:13.453Z,9.78
2019-05-12T07:26:17.874Z,9.93
2019-05-12T07:27:14.112Z,9.84
2019-05-12T07:28:14.344Z,9.89
2019-05-12T07:29:13.383Z,9.78
2019-05-12T07:30:13.682Z,9.99
2019-05-12T07:31:14.241Z,10.45
2019-05-12T07:32:16.610Z,10.18
2019-05-12T07:33:14.615Z,9.94
2019-05-12T07:34:13.621Z,9.50
2019-05-12T07:35:14.631Z,9.47
2019-05-12T07:36:13.754Z,9.50
2019-05-12T07:37:12.196Z,9.56
2019-05-12T07:38:20.546Z,9.47
2019-05-12T07:39:13.613Z,9.50
2019-05-12T07:40:13.765Z,9.61
2019-05-12T07:41:14.240Z,9.50
2019-05-12T07:42:13.367Z,9.54
2019-05-12T07:43:18.626Z,9.97
2019-05-12T07:44:14.230Z,10.59
2019-05-12T07:45:20.674Z,11.10
2019-05-12T07:46:13.478Z,11.47
2019-05-12T07:47:13.770Z,11.83
2019-05-12T07:48:13.858Z,12.16
2019-05-12T07:49:14.043Z,12.31
2019-05-12T07:50:16.154Z,12.24
2019-05-12T07:51:13.766Z,12.49
2019-05-12T07:52:13.759Z,12.32
2019-05-12T07:53:14.296Z,12.23
2019-05-12T07:54:14.135Z,12.27
2019-05-12T07:55:14.589Z,11.55
2019-05-12T07:56:14.291Z,11.14
2019-05-12T07:57:17.157Z,10.76
2019-05-12T07:58:18.287Z,10.30
2019-05-12T07:59:13.544Z,9.96
2019-05-12T08:00:21.016Z,9.93
2019-05-12T08:01:14.595Z,10.04
2019-05-12T08:02:14.145Z,10.20
2019-05-12T08:03:20.697Z,10.32
2019-05-12T08:04:13.448Z,10.40
2019-05-12T08:05:19.437Z,10.78
2019-05-12T08:06:14.237Z,11.11
2019-05-12T08:07:14.291Z,11.02
2019-05-12T08:08:11.829Z,10.81
2019-05-12T08:09:13.594Z,10.67
2019-05-12T08:10:15.864Z,10.41
2019-05-12T08:11:14.904Z,10.09
2019-05-12T08:12:16.374Z,10.17
2019-05-12T08:13:14.819Z,10.27
2019-05-12T08:14:13.692Z,10.84
2019-05-12T08:15:14.002Z,10.89
2019-05-12T08:16:14.011Z,10.56
2019-05-12T08:17:16.881Z,10.51
2019-05-12T08:18:14.036Z,10.38
2019-05-12T08:19:17.230Z,10.40
2019-05-12T08:20:13.497Z,10.52
2019-05-12T08:21:13.819Z,10.61
2019-05-12T08:22:13.562Z,10.45
2019-05-12T08:23:13.921Z,10.36
2019-05-12T08:24:11.647Z,10.40
2019-05-12T08:25:13.517Z,10.53
2019-05-12T08:26:17.906Z,11.11
2019-05-12T08:27:14.242Z,10.89
2019-05-12T08:28:18.053Z,10.84
2019-05-12T08:29:16.913Z,11.15
2019-05-12T08:30:13.820Z,11.52
2019-05-12T08:31:13.957Z,11.94
2019-05-12T08:32:15.946Z,12.39
2019-05-12T08:33:14.687Z,12.71
2019-05-12T08:34:13.533Z,12.89
2019-05-12T08:35:13.739Z,12.60
2019-05-12T08:36:15.509Z,12.09
2019-05-12T08:37:13.778Z,11.80
2019-05-12T08:38:11.514Z,11.42
2019-05-12T08:39:18.123Z,11.17
2019-05-12T08:40:12.464Z,10.89
2019-05-12T08:41:11.483Z,10.85
2019-05-12T08:42:11.585Z,10.60
2019-05-12T08:43:11.434Z,10.47
2019-05-12T08:44:13.404Z,10.71
2019-05-12T08:45:17.015Z,10.71
2019-05-12T08:46:15.289Z,11.19
2019-05-12T08:47:12.186Z,11.54
2019-05-12T08:48:17.149Z,11.15
2019-05-12T08:49:14.390Z,11.29
2019-05-12T08:50:13.588Z,11.83
2019-05-12T08:51:14.438Z,12.23
2019-05-12T08:52:14.206Z,12.49
2019-05-12T08:53:19.986Z,12.45
2019-05-12T08:54:14.231Z,12.54
2019-05-12T08:55:13.877Z,12.87
2019-05-12T08:56:18.669Z,12.89
2019-05-12T08:57:14.371Z,12.71
2019-05-12T08:58:28.177Z,12.93
2019-05-12T08:59:17.539Z,13.15
2019-05-12T09:00:13.499Z,12.92
2019-05-12T09:01:13.662Z,12.90
2019-05-12T09:02:13.751Z,13.29
2019-05-12T09:03:11.217Z,13.48
2019-05-12T09:04:15.807Z,13.62
2019-05-12T09:05:14.281Z,13.81
2019-05-12T09:06:15.484Z,13.75
2019-05-12T09:07:13.878Z,13.39
2019-05-12T09:08:11.151Z,12.74
2019-05-12T09:09:11.146Z,12.77
2019-05-12T09:10:11.127Z,12.82
2019-05-12T09:11:11.139Z,13.05
2019-05-12T09:12:11.104Z,13.32
2019-05-12T09:13:11.095Z,13.59
2019-05-12T09:14:11.082Z,13.51
2019-05-12T09:15:13.423Z,13.39
2019-05-12T09:16:11.061Z,13.29
2019-05-12T09:17:11.050Z,13.28
2019-05-12T09:18:11.044Z,12.59
2019-05-12T09:19:18.215Z,11.88
2019-05-12T09:20:13.743Z,12.01
2019-05-12T09:21:11.004Z,12.42
2019-05-12T09:22:18.493Z,12.96
2019-05-12T09:23:13.599Z,13.38
2019-05-12T09:24:15.632Z,13.51
2019-05-12T09:25:14.106Z,13.49
2019-05-12T09:26:13.020Z,13.03
2019-05-12T09:27:10.959Z,12.79
2019-05-12T09:28:10.924Z,12.52
2019-05-12T09:29:10.916Z,12.60
2019-05-12T09:30:10.902Z,12.82
2019-05-12T09:31:10.891Z,12.64
2019-05-12T09:32:10.911Z,12.70
2019-05-12T09:33:10.868Z,12.87
2019-05-12T09:34:11.952Z,12.95
2019-05-12T09:35:10.853Z,13.14
2019-05-12T09:36:11.425Z,13.39
2019-05-12T09:37:14.123Z,13.44
2019-05-12T09:38:11.301Z,13.69
2019-05-12T09:39:14.059Z,13.73
2019-05-12T09:40:10.789Z,13.49
2019-05-12T09:41:10.778Z,13.54
2019-05-12T09:42:10.792Z,13.45
2019-05-12T09:43:11.457Z,13.75
2019-05-12T09:44:10.755Z,14.09
2019-05-12T09:45:10.774Z,14.10
2019-05-12T09:46:10.723Z,13.96
2019-05-12T09:47:19.437Z,14.17
2019-05-12T09:48:13.861Z,14.33
2019-05-12T09:49:10.687Z,14.89
2019-05-12T09:50:18.429Z,14.95
2019-05-12T09:51:13.387Z,14.51
2019-05-12T09:52:21.642Z,13.77
2019-05-12T09:53:11.709Z,13.52
2019-05-12T09:54:10.632Z,13.12
2019-05-12T09:55:10.620Z,12.87
2019-05-12T09:56:10.608Z,13.11
2019-05-12T09:57:10.614Z,13.73
2019-05-12T09:58:15.836Z,14.03
2019-05-12T09:59:19.106Z,14.15
2019-05-12T10:00:13.605Z,14.42
2019-05-12T10:01:10.555Z,14.64
2019-05-12T10:02:15.783Z,15.16
2019-05-12T10:03:13.696Z,14.89
2019-05-12T10:04:15.387Z,14.88
2019-05-12T10:05:14.213Z,14.70
2019-05-12T10:06:11.501Z,14.45
2019-05-12T10:07:11.484Z,14.60
2019-05-12T10:08:10.472Z,14.47
2019-05-12T10:09:17.606Z,14.35
2019-05-12T10:10:14.013Z,14.40
2019-05-12T10:11:15.749Z,14.65
2019-05-12T10:12:13.578Z,14.89
2019-05-12T10:13:10.416Z,14.89
2019-05-12T10:14:11.036Z,14.73
2019-05-12T10:15:10.396Z,14.78
2019-05-12T10:16:10.390Z,14.54
2019-05-12T10:17:10.370Z,14.40
2019-05-12T10:18:11.373Z,14.65
2019-05-12T10:19:10.374Z,14.75
2019-05-12T10:20:10.340Z,14.75
2019-05-12T10:21:15.234Z,14.83
2019-05-12T10:22:11.312Z,14.47
2019-05-12T10:23:15.644Z,14.50
2019-05-12T10:24:11.320Z,14.45
2019-05-12T10:25:10.286Z,14.42
2019-05-12T10:26:11.825Z,14.47
2019-05-12T10:27:10.258Z,14.54
2019-05-12T10:28:13.026Z,14.65
2019-05-12T10:29:19.651Z,14.50
2019-05-12T10:30:12.665Z,14.43
2019-05-12T10:31:13.673Z,14.47
2019-05-12T10:32:10.540Z,14.45
2019-05-12T10:33:10.192Z,14.14
2019-05-12T10:34:10.257Z,14.27
2019-05-12T10:35:12.530Z,14.51
2019-05-12T10:36:11.180Z,15.14
2019-05-12T10:37:10.145Z,15.35
2019-05-12T10:38:10.932Z,15.51
2019-05-12T10:39:10.122Z,15.35
2019-05-12T10:40:10.111Z,15.32
2019-05-12T10:41:10.125Z,15.17
2019-05-12T10:42:10.088Z,15.25
2019-05-12T10:43:10.076Z,15.17
2019-05-12T10:44:10.066Z,15.25
2019-05-12T10:45:10.834Z,15.41
2019-05-12T10:46:13.117Z,15.34
2019-05-12T10:47:10.034Z,15.21
2019-05-12T10:48:10.021Z,15.32
2019-05-12T10:49:10.011Z,15.11
2019-05-12T10:50:10.025Z,15.34
2019-05-12T10:51:09.987Z,15.56
2019-05-12T10:52:09.976Z,15.57
2019-05-12T10:53:15.448Z,15.38
2019-05-12T10:54:13.107Z,15.41
2019-05-12T10:55:09.945Z,15.46
2019-05-12T10:56:09.931Z,15.38
2019-05-12T10:57:09.919Z,15.34
2019-05-12T10:58:09.908Z,14.91
2019-05-12T10:59:09.898Z,14.50
2019-05-12T11:00:09.916Z,14.60
2019-05-12T11:01:09.876Z,14.75
2019-05-12T11:02:09.881Z,14.61
2019-05-12T11:03:12.345Z,14.88
2019-05-12T11:04:09.841Z,14.95
2019-05-12T11:05:12.444Z,14.98
2019-05-12T11:06:10.841Z,14.94
2019-05-12T11:07:09.807Z,14.50
2019-05-12T11:08:11.348Z,14.72
2019-05-12T11:09:09.789Z,14.65
2019-05-12T11:10:15.142Z,14.92
2019-05-12T11:11:10.763Z,15.28
2019-05-12T11:12:09.770Z,15.29
2019-05-12T11:13:10.051Z,14.69
2019-05-12T11:14:09.761Z,14.73
2019-05-12T11:15:09.720Z,15.06
2019-05-12T11:16:09.707Z,14.84
2019-05-12T11:17:09.714Z,14.78
2019-05-12T11:18:09.682Z,14.62
2019-05-12T11:19:10.686Z,14.57
2019-05-12T11:20:09.660Z,14.57
2019-05-12T11:21:09.650Z,14.64
2019-05-12T11:22:09.639Z,15.11
2019-05-12T11:23:09.626Z,15.28
2019-05-12T11:24:09.642Z,15.60
2019-05-12T11:25:09.646Z,15.56
2019-05-12T11:26:09.593Z,15.72
2019-05-12T11:27:09.604Z,15.90
2019-05-12T11:28:09.572Z,16.17
2019-05-12T11:29:09.583Z,16.42
2019-05-12T11:30:09.577Z,16.31
2019-05-12T11:31:09.536Z,16.39
2019-05-12T11:32:09.526Z,15.89
2019-05-12T11:33:09.513Z,15.80
2019-05-12T11:34:09.504Z,15.57
2019-05-12T11:35:09.514Z,15.43
2019-05-12T11:36:09.510Z,15.36
2019-05-12T11:37:09.470Z,15.32
2019-05-12T11:38:09.459Z,15.43
2019-05-12T11:39:09.447Z,15.44
2019-05-12T11:40:09.436Z,15.68
2019-05-12T11:41:10.126Z,15.65
2019-05-12T11:42:10.411Z,15.64
2019-05-12T11:43:09.403Z,15.51
2019-05-12T11:44:09.395Z,15.35
2019-05-12T11:45:09.379Z,15.41
2019-05-12T11:46:09.382Z,15.32
2019-05-12T11:47:14.721Z,15.21
2019-05-12T11:48:10.530Z,15.35
2019-05-12T11:49:09.711Z,15.43
2019-05-12T11:50:09.994Z,15.51
2019-05-12T11:51:09.403Z,15.43
2019-05-12T11:52:15.444Z,15.47
2019-05-12T11:53:10.288Z,15.19
2019-05-12T11:54:10.804Z,15.11
2019-05-12T11:55:09.270Z,15.25
2019-05-12T11:56:09.440Z,15.17
2019-05-12T11:57:09.248Z,15.23
2019-05-12T11:58:11.444Z,15.43
2019-05-12T11:59:09.222Z,15.39
2019-05-12T12:00:09.218Z,15.60
2019-05-12T12:01:09.205Z,15.56
2019-05-12T12:02:09.188Z,15.69
2019-05-12T12:03:13.350Z,15.80
2019-05-12T12:04:10.194Z,15.75
2019-05-12T12:05:09.179Z,15.76
2019-05-12T12:06:09.142Z,15.56
2019-05-12T12:07:09.132Z,15.56
2019-05-12T12:08:09.134Z,15.56
2019-05-12T12:09:14.549Z,15.65
2019-05-12T12:10:10.125Z,15.54
2019-05-12T12:11:10.492Z,15.76
2019-05-12T12:12:10.076Z,15.69
2019-05-12T12:13:09.065Z,15.75
2019-05-12T12:14:10.655Z,15.69
2019-05-12T12:15:09.069Z,15.54
2019-05-12T12:16:11.148Z,15.36
2019-05-12T12:17:09.021Z,15.34
2019-05-12T12:18:13.760Z,15.51
2019-05-12T12:19:09.995Z,15.51
2019-05-12T12:20:13.976Z,15.72
2019-05-12T12:21:09.975Z,15.74
2019-05-12T12:22:08.964Z,15.86
2019-05-12T12:23:11.053Z,15.72
2019-05-12T12:24:08.944Z,15.31
2019-05-12T12:25:10.910Z,15.46
2019-05-12T12:26:08.942Z,15.68
2019-05-12T12:27:08.909Z,15.83
2019-05-12T12:28:08.897Z,15.78
2019-05-12T12:29:08.886Z,16.08
2019-05-12T12:30:18.628Z,16.28
2019-05-12T12:31:09.866Z,16.21
2019-05-12T12:32:10.073Z,15.97
2019-05-12T12:33:09.839Z,15.92
2019-05-12T12:34:08.830Z,15.89
2019-05-12T12:35:11.893Z,15.97
2019-05-12T12:36:09.804Z,16.11
2019-05-12T12:37:08.799Z,16.30
2019-05-12T12:38:09.217Z,16.30
2019-05-12T12:39:08.776Z,15.97
2019-05-12T12:40:08.762Z,15.57
2019-05-12T12:41:08.753Z,15.72
2019-05-12T12:42:08.738Z,15.89
2019-05-12T12:43:08.758Z,15.94
2019-05-12T12:44:08.722Z,15.75
2019-05-12T12:45:08.705Z,15.67
2019-05-12T12:46:10.493Z,15.39
2019-05-12T12:47:09.681Z,14.83
2019-05-12T12:48:08.699Z,14.68
2019-05-12T12:49:10.338Z,14.73
2019-05-12T12:50:08.726Z,15.11
2019-05-12T12:51:08.646Z,15.29
2019-05-12T12:52:08.630Z,15.51
2019-05-12T12:53:08.638Z,15.21
2019-05-12T12:54:08.605Z,14.95
2019-05-12T12:55:08.721Z,14.65
2019-05-12T12:56:08.642Z,14.54
2019-05-12T12:57:10.086Z,14.42
2019-05-12T12:58:08.566Z,14.62
2019-05-12T12:59:11.702Z,14.73
2019-05-12T13:00:08.536Z,14.47
2019-05-12T13:01:14.144Z,14.21
2019-05-12T13:02:09.551Z,14.18
2019-05-12T13:03:08.525Z,14.10
2019-05-12T13:04:08.491Z,14.20
2019-05-12T13:05:08.478Z,14.22
2019-05-12T13:06:08.468Z,14.27
2019-05-12T13:07:08.458Z,14.14
2019-05-12T13:08:08.471Z,14.12